Time;durP1;ratioP1;P1;durP2;ratioP2;P2;SDS_P1;SDS_P2;PMS_P1;PMS_P2;Temp;Humidity;BMP_temperature;BMP_pressure;BME280_temperature;BME280_humidity;BME280_pressure;Samples;Min_cycle;Max_cycle;Signal;HPM_P1;HPM_P2
2021/12/06 00:00:39;;;;;;;0.00;0.00;;;;;;;6.70;70.47;100696.53;7351461;19;20037;-59
2021/12/06 00:03:08;;;;;;;0.00;0.00;;;;;;;6.81;70.42;100727.59;7358311;19;20002;-59
2021/12/06 00:05:34;;;;;;;0.10;0.10;;;;;;;6.81;70.30;100714.63;7360296;19;20006;-60
2021/12/06 00:08:00;;;;;;;0.00;0.00;;;;;;;6.74;70.07;100692.16;7349089;19;20570;-60
2021/12/06 00:10:26;;;;;;;0.10;0.10;;;;;;;6.85;70.29;100695.56;7350841;19;20466;-60
2021/12/06 00:12:51;;;;;;;0.10;0.10;;;;;;;6.87;70.41;100686.03;7353975;19;20006;-60
2021/12/06 00:15:17;;;;;;;0.10;0.10;;;;;;;6.80;70.40;100673.97;7357516;19;20017;-60
2021/12/06 00:17:42;;;;;;;0.00;0.00;;;;;;;6.89;70.27;100681.66;7358060;19;20013;-60
2021/12/06 00:20:12;;;;;;;0.10;0.10;;;;;;;6.91;70.29;100668.69;7356624;19;20010;-59
2021/12/06 00:22:39;;;;;;;0.00;0.00;;;;;;;6.90;69.89;100657.44;7359947;19;20486;-60
2021/12/06 00:25:07;;;;;;;0.00;0.00;;;;;;;6.90;70.04;100665.25;7359306;19;20034;-60
2021/12/06 00:27:33;;;;;;;0.05;0.05;;;;;;;6.90;69.94;100657.44;7355834;19;20714;-60
2021/12/06 00:29:59;;;;;;;0.05;0.05;;;;;;;6.88;69.87;100642.75;7356290;19;20006;-59
2021/12/06 00:32:24;;;;;;;0.00;0.00;;;;;;;6.92;69.47;100644.44;7354353;19;20018;-60
2021/12/06 00:34:52;;;;;;;0.00;0.00;;;;;;;6.83;69.61;100619.44;7359406;19;20014;-59
2021/12/06 00:37:21;;;;;;;0.03;0.03;;;;;;;6.91;69.78;100633.22;7360645;19;20026;-60
2021/12/06 00:39:52;;;;;;;0.10;0.10;;;;;;;6.80;69.34;100605.63;7355691;19;20916;-60
2021/12/06 00:42:21;;;;;;;0.00;0.00;;;;;;;6.93;69.17;100625.41;7355913;19;20843;-60
2021/12/06 00:44:48;;;;;;;0.03;0.03;;;;;;;6.91;69.30;100612.44;7359578;19;20010;-60
2021/12/06 00:47:13;;;;;;;0.10;0.10;;;;;;;6.92;69.10;100608.97;7356989;19;20026;-60
2021/12/06 00:49:40;;;;;;;0.00;0.00;;;;;;;6.92;69.13;100614.16;7358035;19;20006;-60
2021/12/06 00:52:05;;;;;;;0.00;0.00;;;;;;;6.94;68.99;100614.13;7360425;19;20070;-60
2021/12/06 00:54:35;;;;;;;0.00;0.00;;;;;;;6.94;68.91;100609.78;7358819;19;20011;-60
2021/12/06 00:57:04;;;;;;;0.10;0.10;;;;;;;6.97;68.85;100604.59;7357525;19;20029;-60
2021/12/06 00:59:29;;;;;;;0.10;0.10;;;;;;;6.96;68.95;100602.88;7358171;19;20010;-60
2021/12/06 01:01:56;;;;;;;0.00;0.00;;;;;;;6.98;68.94;100601.13;7359589;19;20022;-60
2021/12/06 01:04:21;;;;;;;0.00;0.00;;;;;;;6.98;68.97;100598.53;7360187;19;20093;-59
2021/12/06 01:06:47;;;;;;;0.00;0.00;;;;;;;7.00;69.25;100596.78;7358878;19;20923;-59
2021/12/06 01:09:12;;;;;;;0.00;0.00;;;;;;;7.00;69.11;100598.53;7352696;19;20018;-59
2021/12/06 01:11:38;;;;;;;0.00;0.00;;;;;;;7.03;69.13;100588.94;7359236;19;20021;-60
2021/12/06 01:14:03;;;;;;;0.08;0.08;;;;;;;7.05;69.32;100588.09;7354276;19;20750;-60
2021/12/06 01:16:30;;;;;;;0.00;0.00;;;;;;;7.07;69.12;100570.75;7359386;19;20056;-60
2021/12/06 01:18:56;;;;;;;0.10;0.10;;;;;;;7.07;69.12;100568.16;7354356;19;20034;-59
2021/12/06 01:21:29;;;;;;;0.00;0.00;;;;;;;7.10;68.91;100570.75;7355906;19;20013;-60
2021/12/06 01:23:59;;;;;;;0.08;0.08;;;;;;;7.12;69.03;100563.78;7359076;19;20081;-60
2021/12/06 01:29:06;;;;;;;0.08;0.08;;;;;;;7.13;68.60;100547.31;7366235;19;20239;-59
2021/12/06 01:31:58;;;;;;;;;;;;;;;7.20;70.08;100546.38;7367467;19;20021;-60
2021/12/06 01:39:42;;;;;;;0.00;0.00;;;;;;;7.07;69.15;100508.44;7361304;19;20021;-59
2021/12/06 01:42:08;;;;;;;0.10;0.10;;;;;;;7.18;69.84;100522.16;7364145;19;20010;-60
2021/12/06 01:44:38;;;;;;;0.00;0.00;;;;;;;7.17;69.60;100510.91;7366158;19;20014;-60
2021/12/06 01:47:16;;;;;;;0.00;0.00;;;;;;;7.17;70.38;100510.06;7365299;19;20010;-60
2021/12/06 01:49:48;;;;;;;0.00;0.00;;;;;;;7.14;70.52;100507.47;7364540;19;20021;-60
2021/12/06 01:52:20;;;;;;;0.00;0.00;;;;;;;7.14;70.63;100510.06;7364248;19;20006;-60
2021/12/06 01:54:48;;;;;;;0.00;0.00;;;;;;;7.09;70.63;100501.47;7357890;19;20029;-60
2021/12/06 01:57:13;;;;;;;0.10;0.10;;;;;;;7.05;70.36;100494.63;7362386;19;20027;-59
2021/12/06 01:59:39;;;;;;;0.10;0.10;;;;;;;7.01;70.75;100486.88;7363558;19;20351;-60
2021/12/06 02:02:06;;;;;;;0.00;0.00;;;;;;;7.01;70.89;100478.22;7363983;19;20037;-60
2021/12/06 02:04:33;;;;;;;0.10;0.10;;;;;;;6.97;70.99;100477.38;7362761;19;20026;-60
2021/12/06 02:07:00;;;;;;;0.10;0.10;;;;;;;6.95;71.56;100463.56;7361093;19;20041;-59
2021/12/06 02:09:27;;;;;;;0.00;0.00;;;;;;;6.94;72.15;100461.84;7364436;19;20470;-60
2021/12/06 02:11:57;;;;;;;0.00;0.00;;;;;;;6.92;72.56;100453.22;7359654;19;20129;-60
2021/12/06 02:17:02;;;;;;;0.00;0.00;;;;;;;6.87;72.70;100439.44;7358685;19;20841;-61
2021/12/06 02:19:32;;;;;;;0.00;0.00;;;;;;;6.83;72.38;100435.16;7360239;19;20021;-60
2021/12/06 02:21:59;;;;;;;0.10;0.10;;;;;;;6.84;73.06;100439.47;7365270;19;20034;-60
2021/12/06 02:24:25;;;;;;;0.05;0.05;;;;;;;6.78;73.34;100429.16;7367048;19;20094;-60
2021/12/06 02:26:53;;;;;;;0.00;0.00;;;;;;;6.80;74.42;100437.81;7367401;19;20014;-60
2021/12/06 02:29:19;;;;;;;0.03;0.03;;;;;;;6.78;73.84;100425.69;7366805;19;20026;-60
2021/12/06 02:31:45;;;;;;;0.00;0.00;;;;;;;6.76;74.33;100417.94;7366738;19;20022;-61
2021/12/06 02:34:11;;;;;;;0.00;0.00;;;;;;;6.74;74.81;100414.50;7362034;19;20011;-61
2021/12/06 02:36:37;;;;;;;0.10;0.10;;;;;;;6.71;74.42;100396.38;7367986;19;20037;-61
2021/12/06 02:39:04;;;;;;;0.10;0.10;;;;;;;6.63;75.08;100378.28;7342023;19;20014;-61
2021/12/06 02:41:30;;;;;;;0.05;0.05;;;;;;;6.66;75.18;100370.50;7369758;19;20824;-61
2021/12/06 02:43:55;;;;;;;0.10;0.10;;;;;;;6.65;75.10;100375.69;7367081;19;20037;-61
2021/12/06 02:46:22;;;;;;;0.10;0.10;;;;;;;6.64;76.02;100364.47;7366847;19;20011;-61
2021/12/06 02:48:48;;;;;;;0.10;0.10;;;;;;;6.52;75.94;100343.00;7363279;19;20006;-60
2021/12/06 02:51:14;;;;;;;0.00;0.00;;;;;;;6.65;76.17;100352.34;7365313;19;20038;-62
2021/12/06 02:53:40;;;;;;;0.00;0.00;;;;;;;6.65;76.93;100339.38;7366836;19;20010;-61
2021/12/06 02:56:19;;;;;;;0.10;0.10;;;;;;;6.65;76.90;100332.44;7368503;19;20592;-61
2021/12/06 02:58:56;;;;;;;0.00;0.00;;;;;;;6.66;77.10;100322.94;7357285;19;20111;-62
2021/12/06 03:01:30;;;;;;;0.00;0.00;;;;;;;6.68;76.99;100315.97;7365188;19;20015;-62
2021/12/06 03:03:56;;;;;;;0.00;0.00;;;;;;;6.68;76.43;100322.00;7366370;19;20037;-60
2021/12/06 03:06:22;;;;;;;0.00;0.00;;;;;;;6.69;76.89;100315.09;7366339;19;20014;-62
2021/12/06 03:09:05;;;;;;;0.00;0.00;;;;;;;6.67;77.41;100306.47;7364930;19;20013;-62
2021/12/06 03:11:37;;;;;;;0.00;0.00;;;;;;;6.71;77.60;100308.16;7367243;19;20518;-62
2021/12/06 03:14:05;;;;;;;0.00;0.00;;;;;;;6.65;77.76;100284.91;7358608;19;20122;-62
2021/12/06 03:16:30;;;;;;;0.03;0.03;;;;;;;6.72;77.72;100289.09;7363215;19;20019;-61
2021/12/06 03:18:56;;;;;;;0.00;0.00;;;;;;;6.74;77.98;100279.56;7367202;19;20486;-62
2021/12/06 03:21:23;;;;;;;0.00;0.00;;;;;;;6.78;78.07;100277.78;7365910;19;20363;-61
2021/12/06 03:23:50;;;;;;;0.00;0.00;;;;;;;6.68;77.77;100243.31;7358324;19;20021;-61
2021/12/06 03:26:16;;;;;;;0.10;0.10;;;;;;;6.79;78.40;100264.78;7365255;19;20034;-61
2021/12/06 03:28:44;;;;;;;0.00;0.00;;;;;;;6.85;78.25;100262.13;7364541;19;20558;-61
2021/12/06 03:31:11;;;;;;;0.00;0.00;;;;;;;6.70;78.23;100221.69;7367969;19;20010;-62
2021/12/06 03:33:40;;;;;;;0.00;0.00;;;;;;;6.89;78.31;100244.75;7362922;19;20049;-61
2021/12/06 03:36:08;;;;;;;0.00;0.00;;;;;;;6.90;78.58;100244.75;7365335;19;20010;-61
2021/12/06 03:38:34;;;;;;;0.10;0.10;;;;;;;6.90;78.08;100234.34;7365562;19;20017;-61
2021/12/06 03:41:00;;;;;;;0.00;0.00;;;;;;;6.92;78.24;100222.19;7364640;19;20021;-62
2021/12/06 03:43:25;;;;;;;0.00;0.00;;;;;;;6.94;78.16;100215.22;7365578;19;20559;-62
2021/12/06 03:45:51;;;;;;;0.00;0.00;;;;;;;6.93;78.07;100210.94;7365894;19;20024;-61
2021/12/06 03:48:17;;;;;;;0.10;0.10;;;;;;;6.94;78.44;100217.84;7362019;19;20010;-61
2021/12/06 03:50:42;;;;;;;0.10;0.10;;;;;;;6.97;78.55;100215.19;7364309;19;20014;-61
2021/12/06 03:53:08;;;;;;;0.10;0.10;;;;;;;6.99;78.33;100221.25;7365642;19;20011;-61
2021/12/06 03:55:33;;;;;;;0.00;0.00;;;;;;;7.02;78.14;100225.50;7364172;19;20346;-61
2021/12/06 03:57:59;;;;;;;0.00;0.00;;;;;;;6.96;77.81;100220.44;7363766;19;20010;-61
2021/12/06 04:00:24;;;;;;;0.10;0.10;;;;;;;7.09;77.72;100236.66;7360098;19;20017;-61
2021/12/06 04:02:50;;;;;;;0.00;0.00;;;;;;;7.11;77.82;100221.94;7362030;19;19999;-61
2021/12/06 04:05:16;;;;;;;0.00;0.00;;;;;;;7.15;78.11;100188.09;7362959;19;20022;-61
2021/12/06 04:07:42;;;;;;;0.10;0.10;;;;;;;7.08;77.88;100157.06;7361128;19;20010;-61
2021/12/06 04:10:09;;;;;;;0.00;0.00;;;;;;;7.26;77.32;100182.72;7363104;19;20059;-60
2021/12/06 04:12:36;;;;;;;0.10;0.10;;;;;;;7.21;77.41;100137.78;7362491;19;20588;-61
2021/12/06 04:15:04;;;;;;;0.00;0.00;;;;;;;7.35;77.37;100151.38;7364612;19;20014;-60
2021/12/06 04:17:29;;;;;;;0.00;0.00;;;;;;;7.33;77.31;100147.94;7362241;19;20065;-61
2021/12/06 04:19:55;;;;;;;0.08;0.08;;;;;;;7.44;77.57;100159.00;7361145;19;20768;-61
2021/12/06 04:22:21;;;;;;;0.03;0.03;;;;;;;7.45;77.34;100173.72;7364587;19;20570;-61
2021/12/06 04:24:47;;;;;;;0.05;0.05;;;;;;;7.47;77.73;100158.09;7363954;19;20006;-61
2021/12/06 04:27:14;;;;;;;0.08;0.08;;;;;;;7.53;77.70;100164.03;7366635;19;20984;-61
2021/12/06 04:29:42;;;;;;;0.00;0.00;;;;;;;7.59;77.69;100154.41;7364476;19;20006;-61
2021/12/06 04:32:09;;;;;;;0.00;0.00;;;;;;;7.62;77.55;100154.34;7365912;19;20102;-61
2021/12/06 04:34:34;;;;;;;0.00;0.00;;;;;;;7.64;77.20;100132.63;7361706;19;20545;-61
2021/12/06 04:37:00;;;;;;;0.00;0.00;;;;;;;7.57;77.28;100119.81;7366257;19;20019;-61
2021/12/06 04:39:28;;;;;;;0.05;0.05;;;;;;;7.62;76.79;100149.16;7349736;19;20780;-61
2021/12/06 04:41:54;;;;;;;0.00;0.00;;;;;;;7.61;77.63;100127.50;7347803;19;20835;-61
2021/12/06 04:44:20;;;;;;;0.10;0.10;;;;;;;7.68;77.33;100126.50;7351294;19;20842;-61
2021/12/06 04:46:46;;;;;;;0.00;0.00;;;;;;;7.65;77.45;100117.88;7352287;19;20086;-61
2021/12/06 04:49:11;;;;;;;0.10;0.10;;;;;;;7.68;77.42;100126.50;7352126;19;20014;-61
2021/12/06 04:51:40;;;;;;;0.00;0.00;;;;;;;7.67;77.52;100091.00;7349753;19;20496;-61
2021/12/06 04:54:06;;;;;;;0.10;0.10;;;;;;;7.65;77.42;100086.72;7355423;19;20474;-60
2021/12/06 04:56:40;;;;;;;0.00;0.00;;;;;;;7.59;77.20;100071.25;7363232;19;20018;-60
2021/12/06 04:59:28;;;;;;;0.00;0.00;;;;;;;7.61;77.01;100074.69;7365544;19;20011;-61
2021/12/06 05:02:00;;;;;;;0.00;0.00;;;;;;;7.64;77.41;100069.41;7367744;19;20010;-61
2021/12/06 05:04:29;;;;;;;0.00;0.00;;;;;;;7.63;77.77;100072.91;7372378;19;20018;-61
2021/12/06 05:07:01;;;;;;;0.10;0.10;;;;;;;7.64;77.72;100077.19;7367183;19;20006;-61
2021/12/06 05:09:36;;;;;;;0.10;0.10;;;;;;;7.63;77.58;100063.34;7371663;19;20013;-61
2021/12/06 05:12:03;;;;;;;0.03;0.03;;;;;;;7.63;77.48;100063.34;7369516;19;20885;-61
2021/12/06 05:14:29;;;;;;;0.00;0.00;;;;;;;7.54;77.62;100037.56;7370422;19;20355;-60
2021/12/06 05:16:55;;;;;;;0.00;0.00;;;;;;;7.64;78.04;100059.00;7371538;19;20015;-61
2021/12/06 05:19:21;;;;;;;0.00;0.00;;;;;;;7.65;78.04;100050.31;7367089;19;20010;-60
2021/12/06 05:21:47;;;;;;;0.10;0.10;;;;;;;7.53;78.00;100030.66;7371282;19;20350;-61
2021/12/06 05:24:15;;;;;;;0.00;0.00;;;;;;;7.68;78.09;100045.06;7369360;19;20003;-61
2021/12/06 05:26:41;;;;;;;0.03;0.03;;;;;;;7.72;78.43;100032.00;7372692;19;20022;-61
2021/12/06 05:29:08;;;;;;;0.00;0.00;;;;;;;7.71;78.61;100019.03;7370151;19;20021;-61
2021/12/06 05:31:39;;;;;;;0.10;0.10;;;;;;;7.79;78.39;100032.69;7372020;19;20061;-59
2021/12/06 05:34:10;;;;;;;0.00;0.00;;;;;;;7.83;78.63;100029.16;7366772;19;20031;-60
2021/12/06 05:36:35;;;;;;;0.00;0.00;;;;;;;7.84;78.63;100036.06;7372640;19;20018;-61
2021/12/06 05:39:01;;;;;;;0.10;0.10;;;;;;;7.91;78.47;100032.44;7366508;19;20021;-61
2021/12/06 05:41:27;;;;;;;0.00;0.00;;;;;;;7.92;78.28;100023.75;7369282;19;20115;-61
2021/12/06 05:43:52;;;;;;;0.10;0.10;;;;;;;7.93;78.60;100025.44;7366777;19;20010;-61
2021/12/06 05:46:18;;;;;;;0.10;0.10;;;;;;;8.02;78.81;100034.78;7369116;19;20030;-61
2021/12/06 05:48:43;;;;;;;0.10;0.10;;;;;;;8.06;78.36;100037.28;7370625;19;20006;-61
2021/12/06 05:51:09;;;;;;;0.10;0.10;;;;;;;8.11;78.67;100033.72;7368119;19;20006;-61
2021/12/06 05:53:34;;;;;;;0.00;0.00;;;;;;;8.15;78.40;100024.94;7368731;19;20010;-61
2021/12/06 05:56:01;;;;;;;0.00;0.00;;;;;;;8.12;78.85;100014.63;7369624;19;20014;-61
2021/12/06 05:58:27;;;;;;;0.00;0.00;;;;;;;8.23;78.88;100017.84;7368820;19;20011;-61
2021/12/06 06:00:55;;;;;;;0.00;0.00;;;;;;;8.28;78.71;100015.97;7370046;19;20067;-61
2021/12/06 06:03:21;;;;;;;0.00;0.00;;;;;;;8.28;78.73;100022.03;7368078;19;20015;-60
2021/12/06 06:05:47;;;;;;;0.00;0.00;;;;;;;8.36;78.89;100013.16;7369469;19;20037;-61
2021/12/06 06:08:12;;;;;;;0.05;0.05;;;;;;;8.35;78.52;100003.66;7366986;19;20022;-61
2021/12/06 06:10:38;;;;;;;0.00;0.00;;;;;;;8.38;78.61;100007.09;7369471;19;20017;-61
2021/12/06 06:13:06;;;;;;;0.00;0.00;;;;;;;8.43;78.41;100004.38;7367766;19;20051;-61
2021/12/06 06:15:32;;;;;;;0.10;0.10;;;;;;;8.46;78.81;100007.72;7369680;19;20018;-61
2021/12/06 06:17:58;;;;;;;0.00;0.00;;;;;;;8.48;78.54;100015.53;7370833;19;20026;-61
2021/12/06 06:20:24;;;;;;;0.00;0.00;;;;;;;8.49;78.50;100020.69;7365833;19;20022;-61
2021/12/06 06:22:49;;;;;;;0.00;0.00;;;;;;;8.42;79.12;99987.91;7368684;19;20063;-61
2021/12/06 06:25:15;;;;;;;0.10;0.10;;;;;;;8.41;78.46;99996.59;7369789;19;20455;-61
2021/12/06 06:27:42;;;;;;;0.00;0.00;;;;;;;8.57;78.42;100003.13;7371244;19;20018;-61
2021/12/06 06:30:08;;;;;;;0.00;0.00;;;;;;;8.58;78.55;100010.03;7366500;19;21259;-61
2021/12/06 06:32:33;;;;;;;0.00;0.00;;;;;;;8.54;78.50;99998.00;7369813;19;20014;-61
2021/12/06 06:34:59;;;;;;;0.00;0.00;;;;;;;8.60;78.35;100006.53;7365643;19;20021;-61
2021/12/06 06:37:25;;;;;;;0.00;0.00;;;;;;;8.63;77.71;100006.47;7363935;19;20011;-61
2021/12/06 06:39:51;;;;;;;0.00;0.00;;;;;;;8.56;77.96;99996.19;7366150;19;20014;-61
2021/12/06 06:42:16;;;;;;;0.00;0.00;;;;;;;8.43;78.26;99979.19;7361902;19;20463;-60
2021/12/06 06:44:42;;;;;;;0.00;0.00;;;;;;;8.54;77.98;99984.13;7369632;19;20018;-61
2021/12/06 06:47:07;;;;;;;0.10;0.10;;;;;;;8.39;78.22;99967.16;7368022;19;20017;-61
2021/12/06 06:49:33;;;;;;;0.00;0.00;;;;;;;8.43;78.17;99968.81;7366542;19;20033;-61
2021/12/06 06:52:00;;;;;;;0.00;0.00;;;;;;;8.45;77.89;99966.16;7365124;19;20458;-61
2021/12/06 06:54:25;;;;;;;0.00;0.00;;;;;;;8.43;78.04;99974.00;7364984;19;20010;-61
2021/12/06 06:56:50;;;;;;;0.00;0.00;;;;;;;8.41;77.86;99980.13;7364611;19;20466;-61
2021/12/06 06:59:16;;;;;;;0.00;0.00;;;;;;;8.36;77.78;99982.84;7363606;19;20465;-61
2021/12/06 07:01:41;;;;;;;0.00;0.00;;;;;;;8.33;77.83;99988.09;7366099;19;20015;-61
2021/12/06 07:04:08;;;;;;;0.10;0.10;;;;;;;8.31;77.65;100000.28;7366206;19;20010;-61
2021/12/06 07:06:34;;;;;;;0.10;0.10;;;;;;;8.06;77.72;99964.50;7367157;19;20475;-61
2021/12/06 07:08:59;;;;;;;0.00;0.00;;;;;;;8.03;77.54;99964.56;7367465;19;20066;-61
2021/12/06 07:11:26;;;;;;;0.00;0.00;;;;;;;8.19;78.11;99996.22;7366705;19;20465;-61
2021/12/06 07:13:52;;;;;;;0.00;0.00;;;;;;;8.08;77.90;99982.66;7363754;19;20497;-61
2021/12/06 07:16:17;;;;;;;0.00;0.00;;;;;;;8.12;77.86;99999.88;7365724;19;20006;-61
2021/12/06 07:18:43;;;;;;;0.10;0.10;;;;;;;7.90;77.76;99973.53;7366997;19;20021;-61
2021/12/06 07:21:09;;;;;;;0.00;0.00;;;;;;;8.05;77.82;99999.16;7362054;19;20003;-61
2021/12/06 07:23:38;;;;;;;0.00;0.00;;;;;;;7.95;77.67;99989.88;7361800;19;20014;-61
2021/12/06 07:26:16;;;;;;;0.00;0.00;;;;;;;7.89;77.86;99986.56;7363100;19;20668;-61
2021/12/06 07:28:42;;;;;;;;;;;;;;;7.98;77.71;99994.16;7363723;19;20351;-61
2021/12/06 07:31:09;;;;;;;0.00;0.00;;;;;;;7.93;77.91;99991.66;7365140;19;19914;-61
2021/12/06 07:33:35;;;;;;;0.10;0.10;;;;;;;7.90;78.11;100002.13;7365905;19;20024;-61
2021/12/06 07:36:01;;;;;;;0.00;0.00;;;;;;;7.88;78.05;99996.09;7368112;19;20023;-59
2021/12/06 07:38:27;;;;;;;0.00;0.00;;;;;;;7.85;78.24;99996.16;7367952;19;20557;-61
2021/12/06 07:40:52;;;;;;;0.00;0.00;;;;;;;7.87;78.15;99994.41;7362886;19;20027;-61
2021/12/06 07:43:18;;;;;;;0.00;0.00;;;;;;;7.87;78.15;99991.81;7365527;19;20006;-61
2021/12/06 07:45:44;;;;;;;0.00;0.00;;;;;;;7.87;78.32;99989.22;7362791;19;20026;-61
2021/12/06 07:48:10;;;;;;;0.10;0.10;;;;;;;7.88;78.48;99988.31;7365018;19;20010;-61
2021/12/06 07:50:36;;;;;;;0.00;0.00;;;;;;;7.89;78.17;99989.16;7359807;19;20021;-61
2021/12/06 07:53:02;;;;;;;0.10;0.10;;;;;;;7.89;78.20;99995.22;7361919;19;20002;-61
2021/12/06 07:55:31;;;;;;;0.00;0.00;;;;;;;7.88;78.23;99985.72;7356923;19;20018;-61
2021/12/06 07:57:58;;;;;;;0.00;0.00;;;;;;;7.82;77.98;99983.25;7356597;19;20229;-61
2021/12/06 08:00:25;;;;;;;0.10;0.10;;;;;;;7.83;78.15;99982.38;7361470;19;20506;-61
2021/12/06 08:02:51;;;;;;;0.00;0.00;;;;;;;7.87;78.29;99984.00;7356949;19;20028;-59
2021/12/06 08:05:35;;;;;;;0.10;0.10;;;;;;;7.86;78.32;99982.31;7353537;19;20538;-61
2021/12/06 08:08:05;;;;;;;0.00;0.00;;;;;;;7.86;78.19;99971.91;7355875;19;20130;-61
2021/12/06 08:10:33;;;;;;;0.00;0.00;;;;;;;7.83;78.31;99966.75;7361293;19;20057;-61
2021/12/06 08:12:58;;;;;;;0.00;0.00;;;;;;;7.80;78.01;99956.44;7362285;19;20018;-61
2021/12/06 08:15:24;;;;;;;0.00;0.00;;;;;;;7.72;77.85;99947.97;7363584;19;20014;-61
2021/12/06 08:17:50;;;;;;;0.00;0.00;;;;;;;7.80;77.98;99972.03;7364703;19;20396;-61
2021/12/06 08:20:15;;;;;;;0.10;0.10;;;;;;;7.78;77.82;99976.41;7359832;19;20034;-61
2021/12/06 08:22:41;;;;;;;0.00;0.00;;;;;;;7.75;77.53;99963.47;7366026;19;20022;-60
2021/12/06 08:25:09;;;;;;;0.00;0.00;;;;;;;7.72;77.91;99973.97;7361736;19;20027;-61
2021/12/06 08:27:35;;;;;;;0.10;0.10;;;;;;;7.68;77.69;99969.72;7364268;19;20471;-61
2021/12/06 08:30:01;;;;;;;0.00;0.00;;;;;;;7.64;77.66;99981.06;7364961;19;20014;-61
2021/12/06 08:32:26;;;;;;;0.00;0.00;;;;;;;7.59;77.59;99983.75;7361959;19;20534;-61
2021/12/06 08:34:52;;;;;;;0.00;0.00;;;;;;;7.56;77.81;99983.84;7359020;19;20008;-61
2021/12/06 08:37:17;;;;;;;0.00;0.00;;;;;;;7.39;77.66;99965.16;7364980;19;20011;-61
2021/12/06 08:39:43;;;;;;;0.00;0.00;;;;;;;7.47;77.48;99984.03;7354971;19;20026;-61
2021/12/06 08:42:09;;;;;;;0.00;0.00;;;;;;;7.43;77.49;99987.59;7362425;19;20015;-61
2021/12/06 08:44:35;;;;;;;0.00;0.00;;;;;;;7.40;77.89;99996.31;7361776;19;20018;-60
2021/12/06 08:47:02;;;;;;;0.00;0.00;;;;;;;7.36;77.94;99997.25;7362017;19;20014;-61
2021/12/06 08:49:28;;;;;;;0.00;0.00;;;;;;;7.23;78.17;99991.44;7362888;19;20007;-61
2021/12/06 08:51:56;;;;;;;0.00;0.00;;;;;;;7.36;78.13;100015.44;7357510;19;21578;-61
2021/12/06 08:54:24;;;;;;;0.10;0.10;;;;;;;7.38;78.15;99998.06;7360317;19;20881;-60
2021/12/06 08:56:51;;;;;;;0.00;0.00;;;;;;;7.41;78.47;100005.81;7365595;19;20494;-61
2021/12/06 08:59:17;;;;;;;0.00;0.00;;;;;;;7.42;78.30;100004.91;7365711;19;20034;-61
2021/12/06 09:01:42;;;;;;;0.00;0.00;;;;;;;7.43;78.46;99996.22;7358551;19;20011;-61
2021/12/06 09:04:12;;;;;;;0.00;0.00;;;;;;;7.47;78.00;99995.28;7362232;19;20070;-61
2021/12/06 09:06:39;;;;;;;0.10;0.10;;;;;;;7.47;77.84;99990.09;7356761;19;20033;-60
2021/12/06 09:09:08;;;;;;;0.10;0.10;;;;;;;7.45;78.16;100002.25;7358368;19;20014;-61
2021/12/06 09:11:35;;;;;;;0.00;0.00;;;;;;;7.28;77.84;99973.16;7361288;19;20470;-61
2021/12/06 09:14:00;;;;;;;0.00;0.00;;;;;;;7.27;77.61;99968.88;7358522;19;20049;-60
2021/12/06 09:16:26;;;;;;;0.03;0.03;;;;;;;7.40;77.78;99985.03;7359577;19;20011;-59
2021/12/06 09:18:53;;;;;;;0.10;0.10;;;;;;;7.33;77.74;99986.91;7362732;19;20011;-60
2021/12/06 09:21:21;;;;;;;0.00;0.00;;;;;;;7.40;78.06;100003.22;7361090;19;20610;-61
2021/12/06 09:23:47;;;;;;;;;;;;;;;7.45;77.88;99981.47;7363068;19;20010;-61
2021/12/06 09:26:12;;;;;;;0.00;0.00;;;;;;;7.30;77.67;99955.84;7362759;19;19950;-61
2021/12/06 09:28:38;;;;;;;0.00;0.00;;;;;;;7.44;77.85;99979.75;7360193;19;20027;-61
2021/12/06 09:31:06;;;;;;;0.00;0.00;;;;;;;7.34;77.69;99967.84;7361787;19;25655;-60
2021/12/06 09:33:33;;;;;;;0.10;0.10;;;;;;;7.46;77.90;99993.56;7358953;19;20939;-61
2021/12/06 09:36:00;;;;;;;0.00;0.00;;;;;;;7.27;77.41;99955.88;7360254;19;20014;-61
2021/12/06 09:38:32;;;;;;;0.00;0.00;;;;;;;7.46;77.58;99987.53;7359602;19;20006;-60
2021/12/06 09:40:58;;;;;;;0.10;0.10;;;;;;;7.41;77.56;99974.63;7360651;19;20006;-60
2021/12/06 09:43:25;;;;;;;0.00;0.00;;;;;;;7.46;77.69;99979.75;7363132;19;20014;-61
2021/12/06 09:45:51;;;;;;;0.00;0.00;;;;;;;7.51;77.75;99978.75;7361656;19;20348;-61
2021/12/06 09:48:19;;;;;;;0.00;0.00;;;;;;;7.57;78.15;99979.50;7370130;19;20030;-61
2021/12/06 09:50:52;;;;;;;0.10;0.10;;;;;;;7.50;77.57;99958.84;7366516;19;20094;-61
2021/12/06 09:53:21;;;;;;;0.10;0.10;;;;;;;7.63;77.81;99979.34;7369524;19;20014;-61
2021/12/06 09:55:49;;;;;;;0.10;0.10;;;;;;;7.68;78.02;99983.56;7367515;19;20474;-61
2021/12/06 09:58:15;;;;;;;;;;;;;;;7.79;77.74;99983.31;7367727;19;20917;-60
2021/12/06 10:00:45;;;;;;;0.00;0.00;;;;;;;7.86;77.34;99977.09;7369932;19;19919;-61
2021/12/06 10:03:15;;;;;;;0.00;0.00;;;;;;;7.90;77.51;99970.91;7364925;19;20026;-61
2021/12/06 10:05:41;;;;;;;0.00;0.00;;;;;;;7.95;77.80;99956.06;7369219;19;21933;-61
2021/12/06 10:08:07;;;;;;;0.00;0.00;;;;;;;8.22;77.69;99967.56;7366340;19;20017;-61
2021/12/06 10:10:33;;;;;;;0.00;0.00;;;;;;;8.37;77.53;99958.56;7366178;19;20030;-61
2021/12/06 10:12:59;;;;;;;0.10;0.10;;;;;;;8.60;77.28;99965.75;7366841;19;20033;-61
2021/12/06 10:15:27;;;;;;;0.00;0.00;;;;;;;8.68;77.04;99931.72;7367392;19;20090;-61
2021/12/06 10:17:54;;;;;;;0.00;0.00;;;;;;;8.83;76.56;99936.50;7368717;19;20022;-61
2021/12/06 10:20:20;;;;;;;0.00;0.00;;;;;;;9.12;75.98;99953.03;7367270;19;20021;-61
2021/12/06 10:22:46;;;;;;;0.00;0.00;;;;;;;9.27;75.78;99968.22;7368541;19;20486;-61
2021/12/06 10:25:12;;;;;;;0.00;0.00;;;;;;;9.45;75.74;99962.50;7366433;19;20018;-61
2021/12/06 10:27:37;;;;;;;0.00;0.00;;;;;;;9.56;75.05;99943.91;7367660;19;20010;-61
2021/12/06 10:30:09;;;;;;;0.10;0.10;;;;;;;9.87;75.18;99970.72;7367055;19;20021;-61
2021/12/06 10:32:38;;;;;;;0.00;0.00;;;;;;;10.02;74.33;99972.00;7368331;19;20032;-61
2021/12/06 10:35:08;;;;;;;0.00;0.00;;;;;;;10.18;73.79;99961.91;7363849;19;20011;-61
2021/12/06 10:37:36;;;;;;;0.05;0.05;;;;;;;10.31;73.51;99960.66;7368178;19;20011;-61
2021/12/06 10:40:06;;;;;;;0.10;0.10;;;;;;;10.43;73.51;99956.78;7368616;19;20767;-61
2021/12/06 10:42:37;;;;;;;0.00;0.00;;;;;;;10.55;73.23;99956.38;7364531;19;20011;-61
2021/12/06 10:45:07;;;;;;;0.00;0.00;;;;;;;10.70;73.22;99952.38;7365244;19;20010;-59
2021/12/06 10:47:33;;;;;;;0.00;0.00;;;;;;;10.76;72.31;99956.53;7362933;19;20010;-61
2021/12/06 10:50:09;;;;;;;0.00;0.00;;;;;;;10.93;72.45;99956.75;7365185;19;20037;-61
2021/12/06 10:52:34;;;;;;;0.00;0.00;;;;;;;10.94;71.47;99973.28;7366764;19;20002;-61
2021/12/06 10:55:00;;;;;;;0.00;0.00;;;;;;;10.93;71.09;99959.38;7364261;19;20014;-61
2021/12/06 10:57:52;;;;;;;0.00;0.00;;;;;;;10.96;72.47;99963.66;7366552;19;20463;-61
2021/12/06 11:00:31;;;;;;;0.00;0.00;;;;;;;10.89;72.13;99960.38;7261162;19;2004688;-62
2021/12/06 11:02:58;;;;;;;0.00;0.00;;;;;;;10.83;71.24;99958.00;7365036;19;20010;-61
2021/12/06 11:05:30;;;;;;;0.00;0.00;;;;;;;10.93;71.91;99954.16;7363740;19;20010;-61
2021/12/06 11:08:17;;;;;;;0.00;0.00;;;;;;;11.05;72.75;99958.94;7365314;19;20014;-60
2021/12/06 11:10:59;;;;;;;0.00;0.00;;;;;;;11.14;72.09;99957.75;7363135;19;20017;-61
2021/12/06 11:13:37;;;;;;;0.00;0.00;;;;;;;11.09;69.93;99959.66;7365636;19;20424;-61
2021/12/06 11:16:24;;;;;;;0.00;0.00;;;;;;;10.97;70.40;99950.53;7362204;19;20021;-60
2021/12/06 11:18:56;;;;;;;0.10;0.10;;;;;;;10.85;70.05;99958.81;7364770;19;20089;-60
2021/12/06 11:21:38;;;;;;;0.00;0.00;;;;;;;10.73;69.18;99948.78;7362192;19;20020;-60
2021/12/06 11:24:13;;;;;;;0.08;0.08;;;;;;;10.65;69.24;99949.91;7364257;19;20610;-61
2021/12/06 11:26:52;;;;;;;0.00;0.00;;;;;;;10.59;69.25;99950.16;7363658;19;20631;-60
2021/12/06 11:29:25;;;;;;;0.00;0.00;;;;;;;10.45;68.80;99941.94;7362471;19;20462;-60
2021/12/06 11:32:02;;;;;;;0.00;0.00;;;;;;;10.36;70.41;99940.47;7361553;19;20037;-60
2021/12/06 11:34:43;;;;;;;0.10;0.10;;;;;;;10.32;70.37;99940.63;7360384;19;20028;-60
2021/12/06 11:37:32;;;;;;;0.10;0.10;;;;;;;10.40;71.57;99951.69;7365593;19;20042;-60
2021/12/06 11:40:10;;;;;;;0.00;0.00;;;;;;;10.54;71.75;99939.00;7360716;19;20010;-61
2021/12/06 11:43:08;;;;;;;0.05;0.05;;;;;;;10.69;71.24;99934.13;7364855;19;20449;-60
2021/12/06 11:45:56;;;;;;;0.00;0.00;;;;;;;10.83;70.60;99939.72;7258210;19;2006414;-60
2021/12/06 11:48:29;;;;;;;0.10;0.10;;;;;;;10.88;68.92;99929.97;7366985;19;20003;-61
2021/12/06 11:51:00;;;;;;;0.10;0.10;;;;;;;11.08;69.15;99945.75;7363315;19;20093;-60